^^
Datos históricos de la estación: Murcia-Puente Tocinos
Diario Informe para Julio 31, 2019 Unidades:  Ambas    Ingés   Métrico
Diario Semanal Mensual Anual
  Máxima: Mínima: Promedio:
Temperatura: 91 °F /  32.8 °C 72.3 °F /  22.4 °C 81 °F /  27.2 °C
Punto de rocio: 68.2 °F /  20.1 °C 62.2 °F /  16.8 °C 65.3 °F /  18.5 °C
Humedad: 81% 39.5% 61%
Velocidad viento: 9.7mph /  15.6km/h - 3.7mph /  6km/h
Racha viento: 17.5mph /  28.2km/h - -
Viento- - SE
Presión: 30 in /  1016.6 hPa 29.9 in /  1011.5 hPa -
Precipitación: 0 in /  0.0 mm    
 
 
Tabla de datos para Julio 31, 2019
Hora Temperatura Punto de rocio Presión Viento Velocidad viento Racha viento Humedad Intensidad lluvia(por hora) Nubes
00:04 76.6 °F /  24.8 °C 67.8 °F /  19.9 °C 30in /  1016.6hPa ENE 1.4mph /  2.2km/h 2mph /  3.2km/h 74% 0in /  0.0mm
00:09 76.6 °F /  24.8 °C 67.6 °F /  19.8 °C 30in /  1016.6hPa North 1mph /  1.6km/h 2.4mph /  3.9km/h 74% 0in /  0.0mm
00:14 76.6 °F /  24.8 °C 67.8 °F /  19.9 °C 30in /  1016.6hPa Calm   2.3mph /  3.7km/h 74.3% 0in /  0.0mm
00:19 76.6 °F /  24.8 °C 68 °F /  20 °C 30in /  1016.6hPa Calm   2.4mph /  3.9km/h 75% 0in /  0.0mm
00:24 76.5 °F /  24.7 °C 68 °F /  20 °C 30in /  1016.6hPa Calm   4.7mph /  7.6km/h 75% 0in /  0.0mm
00:29 76.6 °F /  24.8 °C 68 °F /  20 °C 30in /  1016.6hPa Oeste 0.5mph /  0.8km/h 5mph /  8km/h 75% 0in /  0.0mm
00:34 76.6 °F /  24.8 °C 68.2 °F /  20.1 °C 30in /  1016.6hPa Oeste 1.8mph /  2.9km/h 2mph /  3.2km/h 75% 0in /  0.0mm
00:39 76.6 °F /  24.8 °C 68.2 °F /  20.1 °C 30in /  1016.6hPa Oeste 1.3mph /  2.1km/h   75% 0in /  0.0mm
00:44 76.6 °F /  24.8 °C 68.2 °F /  20.1 °C 30in /  1016.6hPa Calm     75% 0in /  0.0mm
00:49 76.6 °F /  24.8 °C 67.8 °F /  19.9 °C 30in /  1016.6hPa Calm   3.5mph /  5.6km/h 74.3% 0in /  0.0mm
00:54 76.5 °F /  24.7 °C 67.6 °F /  19.8 °C 30in /  1016.3hPa Calm   5.2mph /  8.4km/h 74% 0in /  0.0mm
00:59 76.5 °F /  24.7 °C 67.6 °F /  19.8 °C 30in /  1016.3hPa Este 0.7mph /  1.1km/h 5.8mph /  9.3km/h 73.9% 0in /  0.0mm
01:04 76.5 °F /  24.7 °C 67.5 °F /  19.7 °C 30in /  1016.3hPa Este 2mph /  3.2km/h 6mph /  9.7km/h 74% 0in /  0.0mm
01:09 76.3 °F /  24.6 °C 67.6 °F /  19.8 °C 30in /  1016.3hPa ESE 1.8mph /  2.9km/h 3.5mph /  5.6km/h 74.8% 0in /  0.0mm
01:14 76.3 °F /  24.6 °C 67.6 °F /  19.8 °C 30in /  1016.3hPa SE 1.4mph /  2.2km/h 3mph /  4.8km/h 74.8% 0in /  0.0mm
01:19 76.5 °F /  24.7 °C 67.8 °F /  19.9 °C 30in /  1016.3hPa SE 1mph /  1.6km/h 2mph /  3.2km/h 75% 0in /  0.0mm
01:24 76.5 °F /  24.7 °C 67.8 °F /  19.9 °C 30in /  1016.1hPa Calm   1.4mph /  2.3km/h 75% 0in /  0.0mm
01:29 76.5 °F /  24.7 °C 67.8 °F /  19.9 °C 30in /  1016.1hPa Calm   2.3mph /  3.7km/h 75% 0in /  0.0mm
01:34 76.3 °F /  24.6 °C 67.8 °F /  19.9 °C 30in /  1016.2hPa Calm   2mph /  3.2km/h 75% 0in /  0.0mm
01:39 76.3 °F /  24.6 °C 67.8 °F /  19.9 °C 30in /  1016.2hPa Calm   2.4mph /  3.9km/h 75% 0in /  0.0mm
01:44 76.1 °F /  24.5 °C 67.6 °F /  19.8 °C 30in /  1016.2hPa Calm   2mph /  3.2km/h 75.2% 0in /  0.0mm
01:49 75.9 °F /  24.4 °C 67.5 °F /  19.7 °C 30in /  1016.2hPa Calm     75% 0in /  0.0mm
01:54 75.9 °F /  24.4 °C 67.6 °F /  19.8 °C 30in /  1016.1hPa Calm     75.7% 0in /  0.0mm
01:59 75.7 °F /  24.3 °C 67.3 °F /  19.6 °C 30in /  1016.1hPa Calm   2.9mph /  4.7km/h 75.2% 0in /  0.0mm
02:04 75.7 °F /  24.3 °C 67.1 °F /  19.5 °C 30in /  1016.1hPa Calm   4.6mph /  7.4km/h 74.4% 0in /  0.0mm
02:09 75.7 °F /  24.3 °C 66.7 °F /  19.3 °C 30in /  1016.0hPa SSE 0.6mph /  1km/h 5mph /  8km/h 74% 0in /  0.0mm
02:14 75.6 °F /  24.2 °C 66.7 °F /  19.3 °C 30in /  1016.0hPa SSE 2mph /  3.2km/h 5mph /  8km/h 74.1% 0in /  0.0mm
02:19 75.6 °F /  24.2 °C 67.1 °F /  19.5 °C 30in /  1016.0hPa SSE 2mph /  3.2km/h 5mph /  8km/h 75% 0in /  0.0mm
02:24 75.6 °F /  24.2 °C 67.1 °F /  19.5 °C 30in /  1016.0hPa SE 2mph /  3.2km/h 2.3mph /  3.7km/h 75% 0in /  0.0mm
02:29 75.6 °F /  24.2 °C 67.1 °F /  19.5 °C 30in /  1016.0hPa Este 1.4mph /  2.2km/h 2.9mph /  4.7km/h 75% 0in /  0.0mm
02:34 75.6 °F /  24.2 °C 67.3 °F /  19.6 °C 30in /  1016.0hPa Calm   3mph /  4.8km/h 75.4% 0in /  0.0mm
02:39 75.4 °F /  24.1 °C 67.3 °F /  19.6 °C 30in /  1015.8hPa Este 0.4mph /  0.7km/h 3mph /  4.8km/h 76% 0in /  0.0mm
02:44 75.2 °F /  24 °C 67.1 °F /  19.5 °C 30in /  1015.8hPa ESE 1.4mph /  2.2km/h 4.7mph /  7.6km/h 75.6% 0in /  0.0mm
02:49 75 °F /  23.9 °C 66.9 °F /  19.4 °C 30in /  1015.8hPa SSE 1.7mph /  2.7km/h 5mph /  8km/h 75.9% 0in /  0.0mm
02:54 74.8 °F /  23.8 °C 66.9 °F /  19.4 °C 30in /  1015.8hPa Sur 2.4mph /  3.9km/h 5mph /  8km/h 76% 0in /  0.0mm
02:59 74.8 °F /  23.8 °C 67.1 °F /  19.5 °C 30in /  1015.8hPa Sur 2.1mph /  3.4km/h 3mph /  4.8km/h 77% 0in /  0.0mm
03:04 74.8 °F /  23.8 °C 67.1 °F /  19.5 °C 30in /  1015.8hPa Sur 1.4mph /  2.2km/h 3.5mph /  5.6km/h 77% 0in /  0.0mm
03:09 75 °F /  23.9 °C 67.3 °F /  19.6 °C 30in /  1015.6hPa Sur 1mph /  1.6km/h 3.6mph /  5.8km/h 77% 0in /  0.0mm
03:14 75 °F /  23.9 °C 66.9 °F /  19.4 °C 30in /  1015.6hPa Calm   4mph /  6.4km/h 76% 0in /  0.0mm
03:19 75.4 °F /  24.1 °C 67.3 °F /  19.6 °C 30in /  1015.6hPa Sur 0.4mph /  0.7km/h 3mph /  4.8km/h 76% 0in /  0.0mm
03:24 75.4 °F /  24.1 °C 67.3 °F /  19.6 °C 30in /  1015.3hPa SSE 1.4mph /  2.2km/h 3.5mph /  5.6km/h 76% 0in /  0.0mm
03:29 75.4 °F /  24.1 °C 67.3 °F /  19.6 °C 30in /  1015.3hPa Sur 1.4mph /  2.2km/h 4.6mph /  7.4km/h 76% 0in /  0.0mm
03:34 75.4 °F /  24.1 °C 67.3 °F /  19.6 °C 30in /  1015.3hPa SO 1.4mph /  2.2km/h 5mph /  8km/h 76% 0in /  0.0mm
03:39 75.4 °F /  24.1 °C 67.1 °F /  19.5 °C 30in /  1015.2hPa SO 1.6mph /  2.5km/h 4.7mph /  7.6km/h 75.3% 0in /  0.0mm
03:44 75.4 °F /  24.1 °C 66.9 °F /  19.4 °C 30in /  1015.2hPa SSO 2mph /  3.2km/h 5mph /  8km/h 75% 0in /  0.0mm
03:49 75.4 °F /  24.1 °C 66.9 °F /  19.4 °C 30in /  1015.2hPa SO 2mph /  3.2km/h 5mph /  8km/h 75% 0in /  0.0mm
03:54 75.4 °F /  24.1 °C 66.9 °F /  19.4 °C 30in /  1015.0hPa SO 2mph /  3.2km/h 5mph /  8km/h 75% 0in /  0.0mm
03:59 75.4 °F /  24.1 °C 66.9 °F /  19.4 °C 30in /  1015.0hPa SO 2mph /  3.2km/h 5mph /  8km/h 75% 0in /  0.0mm
04:04 75.2 °F /  24 °C 66.7 °F /  19.3 °C 30in /  1015.0hPa SO 2mph /  3.2km/h 3mph /  4.8km/h 75% 0in /  0.0mm
04:09 75 °F /  23.9 °C 66.6 °F /  19.2 °C 30in /  1014.9hPa OSO 1.4mph /  2.3km/h 2mph /  3.2km/h 75% 0in /  0.0mm
04:14 75 °F /  23.9 °C 66.6 °F /  19.2 °C 30in /  1014.9hPa Calm   2.9mph /  4.7km/h 75% 0in /  0.0mm
04:19 74.8 °F /  23.8 °C 66.4 °F /  19.1 °C 30in /  1014.9hPa OSO 0.4mph /  0.7km/h 3.5mph /  5.6km/h 75% 0in /  0.0mm
04:24 74.8 °F /  23.8 °C 66.6 °F /  19.2 °C 30in /  1014.7hPa SO 1.4mph /  2.2km/h 3.6mph /  5.8km/h 75.2% 0in /  0.0mm
04:29 74.8 °F /  23.8 °C 66.4 °F /  19.1 °C 30in /  1014.7hPa SSO 1.4mph /  2.2km/h 4mph /  6.4km/h 75% 0in /  0.0mm
04:34 74.8 °F /  23.8 °C 66.4 °F /  19.1 °C 30in /  1014.7hPa SSO 1.4mph /  2.2km/h 4mph /  6.4km/h 75% 0in /  0.0mm
04:39 74.8 °F /  23.8 °C 66.4 °F /  19.1 °C 30in /  1014.5hPa SSO 1mph /  1.6km/h 2mph /  3.2km/h 75% 0in /  0.0mm
04:44 74.8 °F /  23.8 °C 66.7 °F /  19.3 °C 30in /  1014.5hPa Calm     75.8% 0in /  0.0mm
04:49 74.7 °F /  23.7 °C 66.4 °F /  19.1 °C 30in /  1014.5hPa Calm   3.6mph /  5.8km/h 75.1% 0in /  0.0mm
04:54 74.7 °F /  23.7 °C 66.2 °F /  19 °C 30in /  1014.4hPa Calm   4mph /  6.4km/h 75% 0in /  0.0mm
04:59 74.7 °F /  23.7 °C 66.2 °F /  19 °C 30in /  1014.4hPa Calm   3mph /  4.8km/h 75.1% 0in /  0.0mm
05:04 74.7 °F /  23.7 °C 66.6 °F /  19.2 °C 30in /  1014.4hPa Calm   4.6mph /  7.4km/h 76% 0in /  0.0mm
05:09 74.3 °F /  23.5 °C 66.4 °F /  19.1 °C 30in /  1014.3hPa Este 0.6mph /  0.9km/h 5mph /  8km/h 76.4% 0in /  0.0mm
05:14 73.8 °F /  23.2 °C 66.4 °F /  19.1 °C 30in /  1014.3hPa ESE 1.8mph /  2.9km/h 5mph /  8km/h 77.4% 0in /  0.0mm
05:19 73.4 °F /  23 °C 66.2 °F /  19 °C 30in /  1014.3hPa ESE 2.2mph /  3.5km/h 5.2mph /  8.4km/h 78.4% 0in /  0.0mm
05:24 73 °F /  22.8 °C 66.2 °F /  19 °C 29.9in /  1014.1hPa ESE 3.1mph /  5km/h 5mph /  8km/h 79% 0in /  0.0mm
05:29 73 °F /  22.8 °C 66.2 °F /  19 °C 29.9in /  1014.1hPa ESE 2.8mph /  4.5km/h 5mph /  8km/h 79.1% 0in /  0.0mm
05:34 73 °F /  22.8 °C 66.2 °F /  19 °C 29.9in /  1014.1hPa SE 2mph /  3.2km/h 5.2mph /  8.4km/h 79.2% 0in /  0.0mm
05:39 73 °F /  22.8 °C 66.4 °F /  19.1 °C 29.9in /  1014.1hPa SSE 2.3mph /  3.7km/h 5mph /  8km/h 79.7% 0in /  0.0mm
05:44 73 °F /  22.8 °C 66 °F /  18.9 °C 29.9in /  1014.1hPa Sur 2.9mph /  4.7km/h 5mph /  8km/h 79% 0in /  0.0mm
05:49 73 °F /  22.8 °C 66 °F /  18.9 °C 29.9in /  1014.1hPa Sur 2.9mph /  4.7km/h 5.2mph /  8.4km/h 79% 0in /  0.0mm
05:54 73 °F /  22.8 °C 66.2 °F /  19 °C 29.9in /  1014.1hPa Sur 2.9mph /  4.7km/h 5mph /  8km/h 79% 0in /  0.0mm
05:59 73 °F /  22.8 °C 66.2 °F /  19 °C 29.9in /  1014.1hPa SSE 3mph /  4.8km/h 5mph /  8km/h 79% 0in /  0.0mm
06:04 73.2 °F /  22.9 °C 66.2 °F /  19 °C 29.9in /  1014.1hPa SSE 3.1mph /  5km/h 5mph /  8km/h 79% 0in /  0.0mm
06:09 73.2 °F /  22.9 °C 66.2 °F /  19 °C 29.9in /  1014.1hPa SSE 2.6mph /  4.2km/h 3.6mph /  5.8km/h 78.5% 0in /  0.0mm
06:14 73.2 °F /  22.9 °C 66.4 °F /  19.1 °C 29.9in /  1014.1hPa NO 1.4mph /  2.2km/h 4mph /  6.4km/h 79% 0in /  0.0mm
06:19 73 °F /  22.8 °C 66.2 °F /  19 °C 30in /  1014.2hPa ONO 1.6mph /  2.5km/h 4.6mph /  7.4km/h 79.3% 0in /  0.0mm
06:24 72.9 °F /  22.7 °C 66.2 °F /  19 °C 30in /  1014.2hPa ONO 2mph /  3.2km/h 5mph /  8km/h 80% 0in /  0.0mm
06:29 72.7 °F /  22.6 °C 66.4 °F /  19.1 °C 30in /  1014.2hPa ONO 1.4mph /  2.3km/h 2mph /  3.2km/h 80.9% 0in /  0.0mm
06:34 72.7 °F /  22.6 °C 66.4 °F /  19.1 °C 30in /  1014.2hPa Calm     81% 0in /  0.0mm
06:39 72.7 °F /  22.6 °C 66.6 °F /  19.2 °C 30in /  1014.2hPa Calm     81% 0in /  0.0mm
06:44 72.7 °F /  22.6 °C 66.6 °F /  19.2 °C 30in /  1014.2hPa Calm     81% 0in /  0.0mm
06:49 72.7 °F /  22.6 °C 66.6 °F /  19.2 °C 30in /  1014.2hPa Calm     80.9% 0in /  0.0mm
06:54 72.7 °F /  22.6 °C 66.2 °F /  19 °C 30in /  1014.2hPa Calm   5.9mph /  9.5km/h 80.1% 0in /  0.0mm
06:59 72.7 °F /  22.6 °C 66.2 °F /  19 °C 30in /  1014.2hPa SSE 1mph /  1.6km/h 6mph /  9.7km/h 79.9% 0in /  0.0mm
07:04 72.5 °F /  22.5 °C 65.7 °F /  18.7 °C 30in /  1014.3hPa Sur 2.9mph /  4.6km/h 5mph /  8km/h 79% 0in /  0.0mm
07:09 72.3 °F /  22.4 °C 65.5 °F /  18.6 °C 30in /  1014.3hPa Sur 2.9mph /  4.7km/h 5mph /  8km/h 79% 0in /  0.0mm
07:14 72.3 °F /  22.4 °C 65.7 °F /  18.7 °C 30in /  1014.3hPa Sur 2.9mph /  4.7km/h 5mph /  8km/h 79.6% 0in /  0.0mm
07:19 72.3 °F /  22.4 °C 65.8 °F /  18.8 °C 30in /  1014.3hPa Sur 3mph /  4.8km/h 5.2mph /  8.4km/h 80% 0in /  0.0mm
07:24 72.3 °F /  22.4 °C 65.8 °F /  18.8 °C 30in /  1014.3hPa SSE 3.1mph /  5km/h 5mph /  8km/h 80% 0in /  0.0mm
07:29 72.3 °F /  22.4 °C 65.5 °F /  18.6 °C 30in /  1014.3hPa SSE 3mph /  4.9km/h 5mph /  8km/h 79.2% 0in /  0.0mm
07:34 72.5 °F /  22.5 °C 65.7 °F /  18.7 °C 30in /  1014.4hPa Sur 2.9mph /  4.7km/h 5mph /  8km/h 79% 0in /  0.0mm
07:39 72.7 °F /  22.6 °C 65.5 °F /  18.6 °C 30in /  1014.4hPa SO 2.9mph /  4.7km/h 5mph /  8km/h 78.1% 0in /  0.0mm
07:44 72.7 °F /  22.6 °C 65.5 °F /  18.6 °C 30in /  1014.4hPa OSO 3.1mph /  5km/h 5mph /  8km/h 78% 0in /  0.0mm
07:49 72.9 °F /  22.7 °C 65.5 °F /  18.6 °C 30in /  1014.6hPa Oeste 3mph /  4.9km/h 5mph /  8km/h 78% 0in /  0.0mm
07:54 72.7 °F /  22.6 °C 65.3 °F /  18.5 °C 30in /  1014.6hPa Oeste 2.9mph /  4.7km/h 6.9mph /  11.1km/h 77.4% 0in /  0.0mm
07:59 72.5 °F /  22.5 °C 64.9 °F /  18.3 °C 30in /  1014.6hPa OSO 3.1mph /  5km/h 7mph /  11.3km/h 77% 0in /  0.0mm
08:04 72.5 °F /  22.5 °C 64.8 °F /  18.2 °C 30in /  1014.8hPa OSO 3.6mph /  5.8km/h 6.2mph /  10km/h 77% 0in /  0.0mm
08:09 72.5 °F /  22.5 °C 64.8 °F /  18.2 °C 30in /  1014.8hPa OSO 3.4mph /  5.5km/h 6mph /  9.7km/h 77% 0in /  0.0mm
08:14 72.7 °F /  22.6 °C 64.9 °F /  18.3 °C 30in /  1014.8hPa OSO 3.1mph /  5km/h 5mph /  8km/h 76.9% 0in /  0.0mm
08:19 72.7 °F /  22.6 °C 64.8 °F /  18.2 °C 30in /  1014.9hPa OSO 2.8mph /  4.5km/h 5mph /  8km/h 76% 0in /  0.0mm
08:24 72.9 °F /  22.7 °C 64.6 °F /  18.1 °C 30in /  1014.9hPa SO 2mph /  3.2km/h 5mph /  8km/h 75.3% 0in /  0.0mm
08:29 73 °F /  22.8 °C 64.8 °F /  18.2 °C 30in /  1014.9hPa SO 1.9mph /  3.1km/h 5mph /  8km/h 75% 0in /  0.0mm
08:34 73.4 °F /  23 °C 64.8 °F /  18.2 °C 30in /  1015.1hPa SO 1.8mph /  2.9km/h 4.7mph /  7.6km/h 74.2% 0in /  0.0mm
08:39 73.8 °F /  23.2 °C 64.6 °F /  18.1 °C 30in /  1015.1hPa OSO 1.9mph /  3km/h 5.9mph /  9.5km/h 73.3% 0in /  0.0mm
08:44 73.8 °F /  23.2 °C 64.6 °F /  18.1 °C 30in /  1015.1hPa SO 2mph /  3.2km/h 7.4mph /  11.9km/h 73% 0in /  0.0mm
08:49 73.8 °F /  23.2 °C 64.8 °F /  18.2 °C 30in /  1015.1hPa SSO 2.7mph /  4.4km/h 9.7mph /  15.6km/h 73.6% 0in /  0.0mm
08:54 73.6 °F /  23.1 °C 64.9 °F /  18.3 °C 30in /  1015.1hPa SSO 4.7mph /  7.6km/h 10mph /  16.1km/h 74.3% 0in /  0.0mm
08:59 73.4 °F /  23 °C 64.9 °F /  18.3 °C 30in /  1015.1hPa SSO 5mph /  8km/h 9mph /  14.5km/h 74.9% 0in /  0.0mm
09:04 73.4 °F /  23 °C 64.9 °F /  18.3 °C 30in /  1015.1hPa SSO 5.4mph /  8.7km/h 9mph /  14.5km/h 74.8% 0in /  0.0mm
09:09 73.6 °F /  23.1 °C 64.8 °F /  18.2 °C 30in /  1015.1hPa SSO 5.2mph /  8.4km/h 7.4mph /  11.9km/h 74% 0in /  0.0mm
09:14 73.8 °F /  23.2 °C 64.9 °F /  18.3 °C 30in /  1015.1hPa SSO 4.7mph /  7.6km/h 7mph /  11.3km/h 73.8% 0in /  0.0mm
09:19 74.1 °F /  23.4 °C 64.9 °F /  18.3 °C 30in /  1015.1hPa SSO 4.3mph /  7km/h 7mph /  11.3km/h 73% 0in /  0.0mm
09:24 74.5 °F /  23.6 °C 64.9 °F /  18.3 °C 30in /  1015.1hPa SSO 3.6mph /  5.8km/h 6.9mph /  11.1km/h 72.3% 0in /  0.0mm
09:29 74.7 °F /  23.7 °C 64.9 °F /  18.3 °C 30in /  1015.1hPa SSO 3.6mph /  5.8km/h 7mph /  11.3km/h 71.7% 0in /  0.0mm
09:34 75 °F /  23.9 °C 64.9 °F /  18.3 °C 30in /  1015.1hPa SSO 3.6mph /  5.8km/h 7mph /  11.3km/h 71% 0in /  0.0mm
09:39 75.2 °F /  24 °C 64.8 °F /  18.2 °C 30in /  1015.1hPa SSO 3.9mph /  6.3km/h 7.4mph /  11.9km/h 70.4% 0in /  0.0mm
09:44 75.2 °F /  24 °C 64.9 °F /  18.3 °C 30in /  1015.1hPa SSO 4.7mph /  7.6km/h 8.1mph /  13km/h 70.4% 0in /  0.0mm
09:49 75.4 °F /  24.1 °C 64.9 °F /  18.3 °C 30in /  1015.1hPa SSO 4.7mph /  7.6km/h 8mph /  12.9km/h 70% 0in /  0.0mm
09:54 75.6 °F /  24.2 °C 64.9 °F /  18.3 °C 30in /  1015.1hPa SO 4.7mph /  7.6km/h 7mph /  11.3km/h 69.8% 0in /  0.0mm
09:59 75.9 °F /  24.4 °C 64.9 °F /  18.3 °C 30in /  1015.1hPa Sur 4.3mph /  7km/h 7mph /  11.3km/h 69% 0in /  0.0mm
10:04 76.3 °F /  24.6 °C 64.8 °F /  18.2 °C 30in /  1015.2hPa Sur 3.6mph /  5.8km/h 6mph /  9.7km/h 67.6% 0in /  0.0mm
10:09 76.6 °F /  24.8 °C 64.6 °F /  18.1 °C 30in /  1015.2hPa Sur 3.5mph /  5.6km/h 6mph /  9.7km/h 66.6% 0in /  0.0mm
10:14 77 °F /  25 °C 64 °F /  17.8 °C 30in /  1015.2hPa SO 3.1mph /  5km/h 6mph /  9.7km/h 64.4% 0in /  0.0mm
10:19 77.4 °F /  25.2 °C 63.9 °F /  17.7 °C 30in /  1015.3hPa Sur 3.2mph /  5.2km/h 6.9mph /  11.1km/h 63.1% 0in /  0.0mm
10:24 77.9 °F /  25.5 °C 63.7 °F /  17.6 °C 30in /  1015.3hPa SSE 3.6mph /  5.8km/h 7mph /  11.3km/h 61.8% 0in /  0.0mm
10:29 78.4 °F /  25.8 °C 63.3 °F /  17.4 °C 30in /  1015.3hPa Sur 3.6mph /  5.8km/h 6.9mph /  11.1km/h 59.9% 0in /  0.0mm
10:34 78.8 °F /  26 °C 63.1 °F /  17.3 °C 30in /  1015.3hPa SSO 3.6mph /  5.8km/h 7mph /  11.3km/h 58.7% 0in /  0.0mm
10:39 79.2 °F /  26.2 °C 62.6 °F /  17 °C 30in /  1015.3hPa Sur 3.8mph /  6.1km/h 8.1mph /  13km/h 56.9% 0in /  0.0mm
10:44 79.3 °F /  26.3 °C 62.6 °F /  17 °C 30in /  1015.3hPa SSO 4.3mph /  6.9km/h 8mph /  12.9km/h 56.5% 0in /  0.0mm
10:49 79.9 °F /  26.6 °C 62.8 °F /  17.1 °C 30in /  1015.3hPa SSE 4.1mph /  6.6km/h 7mph /  11.3km/h 56% 0in /  0.0mm
10:54 80.2 °F /  26.8 °C 62.6 °F /  17 °C 30in /  1015.2hPa Sur 3.6mph /  5.8km/h 6.2mph /  10km/h 55% 0in /  0.0mm
10:59 80.6 °F /  27 °C 62.8 °F /  17.1 °C 30in /  1015.2hPa Sur 3.6mph /  5.8km/h 6.2mph /  10km/h 54.5% 0in /  0.0mm
11:04 80.8 °F /  27.1 °C 62.6 °F /  17 °C 30in /  1015.2hPa SO 3.6mph /  5.8km/h 6mph /  9.7km/h 54% 0in /  0.0mm
11:09 81.1 °F /  27.3 °C 62.8 °F /  17.1 °C 30in /  1015.1hPa Sur 3.4mph /  5.5km/h 8.1mph /  13km/h 53.6% 0in /  0.0mm
11:14 81.3 °F /  27.4 °C 62.6 °F /  17 °C 30in /  1015.1hPa SSE 3.1mph /  5km/h 8mph /  12.9km/h 53% 0in /  0.0mm
11:19 81.9 °F /  27.7 °C 62.8 °F /  17.1 °C 30in /  1015.1hPa OSO 3.2mph /  5.2km/h 6.9mph /  11.1km/h 52.7% 0in /  0.0mm
11:24 81.9 °F /  27.7 °C 63.1 °F /  17.3 °C 30in /  1015.1hPa Sur 3.6mph /  5.8km/h 7mph /  11.3km/h 53% 0in /  0.0mm
11:29 82.2 °F /  27.9 °C 63 °F /  17.2 °C 30in /  1015.1hPa SSE 3.4mph /  5.5km/h 6mph /  9.7km/h 52.2% 0in /  0.0mm
11:34 82.9 °F /  28.3 °C 63.3 °F /  17.4 °C 30in /  1015.2hPa Sur 2.9mph /  4.7km/h 5mph /  8km/h 51.6% 0in /  0.0mm
11:39 83.7 °F /  28.7 °C 63 °F /  17.2 °C 30in /  1015.2hPa Oeste 2.5mph /  4.1km/h 5.9mph /  9.5km/h 50.1% 0in /  0.0mm
11:44 83.8 °F /  28.8 °C 62.8 °F /  17.1 °C 30in /  1015.2hPa Oeste 1.8mph /  2.9km/h 6mph /  9.7km/h 49.2% 0in /  0.0mm
11:49 83.8 °F /  28.8 °C 62.8 °F /  17.1 °C 30in /  1015.2hPa NO 2mph /  3.2km/h 6mph /  9.7km/h 49.4% 0in /  0.0mm
11:54 84.4 °F /  29.1 °C 63.1 °F /  17.3 °C 30in /  1015.1hPa ESE 2.4mph /  3.9km/h 5mph /  8km/h 49.1% 0in /  0.0mm
11:59 84.7 °F /  29.3 °C 63.1 °F /  17.3 °C 30in /  1015.1hPa Este 2.4mph /  3.9km/h 5mph /  8km/h 48.4% 0in /  0.0mm
12:04 84.9 °F /  29.4 °C 63.1 °F /  17.3 °C 30in /  1015.1hPa ENE 2.4mph /  3.9km/h 5mph /  8km/h 48.2% 0in /  0.0mm
12:09 85.5 °F /  29.7 °C 63.5 °F /  17.5 °C 30in /  1015.1hPa ENE 2.4mph /  3.9km/h 5.2mph /  8.4km/h 48.2% 0in /  0.0mm
12:14 85.8 °F /  29.9 °C 63.9 °F /  17.7 °C 30in /  1015.1hPa ENE 2.4mph /  3.9km/h 5.2mph /  8.4km/h 48% 0in /  0.0mm
12:19 86.4 °F /  30.2 °C 64 °F /  17.8 °C 30in /  1015.1hPa NNE 2.4mph /  3.9km/h 5.9mph /  9.5km/h 47.5% 0in /  0.0mm
12:24 86.5 °F /  30.3 °C 63.7 °F /  17.6 °C 30in /  1015.0hPa NNE 2.4mph /  3.9km/h 7.4mph /  11.9km/h 46.8% 0in /  0.0mm
12:29 86.5 °F /  30.3 °C 63.5 °F /  17.5 °C 30in /  1015.0hPa North 2.6mph /  4.2km/h 7mph /  11.3km/h 46.3% 0in /  0.0mm
12:34 86.4 °F /  30.2 °C 63.1 °F /  17.3 °C 30in /  1015.0hPa NNE 3.1mph /  5km/h 6.9mph /  11.1km/h 46.1% 0in /  0.0mm
12:39 86.5 °F /  30.3 °C 63.3 °F /  17.4 °C 30in /  1014.9hPa North 3mph /  4.9km/h 7mph /  11.3km/h 46% 0in /  0.0mm
12:44 86.5 °F /  30.3 °C 63.3 °F /  17.4 °C 30in /  1014.9hPa Este 2.9mph /  4.7km/h 6.2mph /  10km/h 46% 0in /  0.0mm
12:49 86.7 °F /  30.4 °C 63.1 °F /  17.3 °C 30in /  1014.9hPa Este 2.9mph /  4.7km/h 6mph /  9.7km/h 45.4% 0in /  0.0mm
12:54 87.1 °F /  30.6 °C 63.3 °F /  17.4 °C 30in /  1014.9hPa ENE 3.1mph /  5km/h 6mph /  9.7km/h 45.5% 0in /  0.0mm
12:59 87.1 °F /  30.6 °C 62.8 °F /  17.1 °C 30in /  1014.9hPa NNE 3.3mph /  5.3km/h 6.9mph /  11.1km/h 44.4% 0in /  0.0mm
13:04 86.9 °F /  30.5 °C 63 °F /  17.2 °C 30in /  1014.9hPa NE 3.6mph /  5.8km/h 8.1mph /  13km/h 44.9% 0in /  0.0mm
13:09 87.1 °F /  30.6 °C 62.6 °F /  17 °C 30in /  1014.8hPa NNE 3.6mph /  5.8km/h 8.5mph /  13.7km/h 44.3% 0in /  0.0mm
13:14 87.3 °F /  30.7 °C 62.2 °F /  16.8 °C 30in /  1014.8hPa ESE 3.6mph /  5.8km/h 9mph /  14.5km/h 43.5% 0in /  0.0mm
13:19 87.4 °F /  30.8 °C 63.1 °F /  17.3 °C 30in /  1014.8hPa Este 3.8mph /  6.1km/h 8mph /  12.9km/h 44.4% 0in /  0.0mm
13:24 87.6 °F /  30.9 °C 63 °F /  17.2 °C 30in /  1014.6hPa NNE 4.3mph /  6.9km/h 7mph /  11.3km/h 44% 0in /  0.0mm
13:29 87.8 °F /  31 °C 63.7 °F /  17.6 °C 30in /  1014.6hPa NE 4.4mph /  7.1km/h 9.2mph /  14.8km/h 44.7% 0in /  0.0mm
13:34 88.2 °F /  31.2 °C 63.5 °F /  17.5 °C 30in /  1014.6hPa ENE 4.7mph /  7.6km/h 9mph /  14.5km/h 44% 0in /  0.0mm
13:39 88.2 °F /  31.2 °C 63.7 °F /  17.6 °C 30in /  1014.4hPa ENE 4.7mph /  7.6km/h 9.2mph /  14.8km/h 44.3% 0in /  0.0mm
13:44 88 °F /  31.1 °C 63.5 °F /  17.5 °C 30in /  1014.4hPa NO 4.7mph /  7.6km/h 9mph /  14.5km/h 44.3% 0in /  0.0mm
13:49 88.2 °F /  31.2 °C 63.5 °F /  17.5 °C 30in /  1014.4hPa ENE 4.5mph /  7.2km/h 9.2mph /  14.8km/h 44.1% 0in /  0.0mm
13:54 88.2 °F /  31.2 °C 63.5 °F /  17.5 °C 30in /  1014.2hPa ENE 4mph /  6.5km/h 9.2mph /  14.8km/h 43.9% 0in /  0.0mm
13:59 88.5 °F /  31.4 °C 63.3 °F /  17.4 °C 30in /  1014.2hPa Este 4.2mph /  6.8km/h 9mph /  14.5km/h 43.2% 0in /  0.0mm
14:04 88.7 °F /  31.5 °C 63.1 °F /  17.3 °C 30in /  1014.2hPa NE 4.7mph /  7.6km/h 11.5mph /  18.5km/h 42.8% 0in /  0.0mm
14:09 88.5 °F /  31.4 °C 63.1 °F /  17.3 °C 29.9in /  1014.1hPa NE 5.2mph /  8.3km/h 12mph /  19.3km/h 42.9% 0in /  0.0mm
14:14 88.9 °F /  31.6 °C 63 °F /  17.2 °C 29.9in /  1014.1hPa NE 6.2mph /  10km/h 11mph /  17.7km/h 42.3% 0in /  0.0mm
14:19 89.1 °F /  31.7 °C 62.8 °F /  17.1 °C 29.9in /  1014.1hPa North 5.5mph /  8.8km/h 7mph /  11.3km/h 41.7% 0in /  0.0mm
14:24 89.4 °F /  31.9 °C 63.7 °F /  17.6 °C 29.9in /  1013.9hPa NE 3.6mph /  5.8km/h 8.5mph /  13.7km/h 42.4% 0in /  0.0mm
14:29 89.8 °F /  32.1 °C 63.7 °F /  17.6 °C 29.9in /  1013.9hPa NE 3.4mph /  5.4km/h 9mph /  14.5km/h 42.1% 0in /  0.0mm
14:34 90 °F /  32.2 °C 63.7 °F /  17.6 °C 29.9in /  1013.9hPa NE 2.9mph /  4.7km/h 7mph /  11.3km/h 41.7% 0in /  0.0mm
14:39 90.1 °F /  32.3 °C 63.7 °F /  17.6 °C 29.9in /  1013.6hPa NE 3.1mph /  5km/h 8.7mph /  14km/h 41.6% 0in /  0.0mm
14:44 90.1 °F /  32.3 °C 64.2 °F /  17.9 °C 29.9in /  1013.6hPa Este 3.6mph /  5.8km/h 9.7mph /  15.6km/h 42.3% 0in /  0.0mm
14:49 90.1 °F /  32.3 °C 64.2 °F /  17.9 °C 29.9in /  1013.6hPa ESE 4.4mph /  7.1km/h 12.3mph /  19.8km/h 42.4% 0in /  0.0mm
14:54 90.1 °F /  32.3 °C 63.9 °F /  17.7 °C 29.9in /  1013.4hPa ESE 6.4mph /  10.3km/h 13.7mph /  22km/h 41.9% 0in /  0.0mm
14:59 89.8 °F /  32.1 °C 63.7 °F /  17.6 °C 29.9in /  1013.4hPa Sur 6.6mph /  10.6km/h 14mph /  22.5km/h 42% 0in /  0.0mm
15:04 90 °F /  32.2 °C 63.7 °F /  17.6 °C 29.9in /  1013.4hPa ESE 6.9mph /  11.1km/h 15.2mph /  24.5km/h 41.8% 0in /  0.0mm
15:09 90 °F /  32.2 °C 63.9 °F /  17.7 °C 29.9in /  1013.2hPa ESE 7mph /  11.3km/h 15mph /  24.1km/h 42% 0in /  0.0mm
15:14 90.1 °F /  32.3 °C 63.5 °F /  17.5 °C 29.9in /  1013.2hPa SSE 7.4mph /  11.9km/h 14mph /  22.5km/h 41.1% 0in /  0.0mm
15:19 90.5 °F /  32.5 °C 63.3 °F /  17.4 °C 29.9in /  1013.2hPa SSE 7.3mph /  11.7km/h 12.7mph /  20.4km/h 40.8% 0in /  0.0mm
15:24 90.7 °F /  32.6 °C 63.3 °F /  17.4 °C 29.9in /  1013.0hPa ESE 6.9mph /  11.1km/h 15mph /  24.1km/h 40.4% 0in /  0.0mm
15:29 90.7 °F /  32.6 °C 63 °F /  17.2 °C 29.9in /  1013.0hPa SE 7mph /  11.3km/h 15mph /  24.1km/h 40% 0in /  0.0mm
15:34 90.5 °F /  32.5 °C 63 °F /  17.2 °C 29.9in /  1013.0hPa SE 7.4mph /  11.9km/h 13mph /  20.9km/h 40.1% 0in /  0.0mm
15:39 90.9 °F /  32.7 °C 63.1 °F /  17.3 °C 29.9in /  1012.8hPa SSE 6.7mph /  10.8km/h 11.5mph /  18.5km/h 40% 0in /  0.0mm
15:44 90.7 °F /  32.6 °C 63 °F /  17.2 °C 29.9in /  1012.8hPa ESE 5.2mph /  8.4km/h 15mph /  24.1km/h 39.9% 0in /  0.0mm
15:49 90.7 °F /  32.6 °C 63 °F /  17.2 °C 29.9in /  1012.8hPa ESE 5.8mph /  9.4km/h 16.8mph /  27km/h 39.9% 0in /  0.0mm
15:54 90.7 °F /  32.6 °C 62.6 °F /  17 °C 29.9in /  1012.5hPa SE 7.4mph /  11.9km/h 17.3mph /  27.8km/h 39.5% 0in /  0.0mm
15:59 91 °F /  32.8 °C 63.7 °F /  17.6 °C 29.9in /  1012.5hPa SE 7.8mph /  12.5km/h 17mph /  27.4km/h 40.5% 0in /  0.0mm
16:04 91 °F /  32.8 °C 64.2 °F /  17.9 °C 29.9in /  1012.5hPa SE 8.5mph /  13.7km/h 15mph /  24.1km/h 41.3% 0in /  0.0mm
16:09 90.7 °F /  32.6 °C 63.7 °F /  17.6 °C 29.9in /  1012.3hPa Este 8.8mph /  14.2km/h 15mph /  24.1km/h 41.1% 0in /  0.0mm
16:14 90.7 °F /  32.6 °C 63.7 °F /  17.6 °C 29.9in /  1012.3hPa Este 9.7mph /  15.6km/h 15.2mph /  24.5km/h 41% 0in /  0.0mm
16:19 90.9 °F /  32.7 °C 64.6 °F /  18.1 °C 29.9in /  1012.3hPa ESE 9mph /  14.5km/h 15mph /  24.1km/h 41.9% 0in /  0.0mm
16:24 90.9 °F /  32.7 °C 64.2 °F /  17.9 °C 29.9in /  1012.0hPa ESE 7.4mph /  11.9km/h 15.2mph /  24.5km/h 41.4% 0in /  0.0mm
16:29 90.7 °F /  32.6 °C 65.3 °F /  18.5 °C 29.9in /  1012.0hPa ESE 8.1mph /  13km/h 16mph /  25.7km/h 43.3% 0in /  0.0mm
16:34 90.5 °F /  32.5 °C 64.9 °F /  18.3 °C 29.9in /  1012.1hPa ESE 9.7mph /  15.6km/h 16.3mph /  26.2km/h 43.1% 0in /  0.0mm
16:39 90 °F /  32.2 °C 64.8 °F /  18.2 °C 29.9in /  1012.1hPa Este 9.7mph /  15.6km/h 16mph /  25.7km/h 43.5% 0in /  0.0mm
16:44 90 °F /  32.2 °C 65.3 °F /  18.5 °C 29.9in /  1012.1hPa ESE 9.7mph /  15.6km/h 15mph /  24.1km/h 44.2% 0in /  0.0mm
16:49 90.1 °F /  32.3 °C 65.7 °F /  18.7 °C 29.9in /  1012.1hPa SE 9.3mph /  15km/h 15mph /  24.1km/h 44.7% 0in /  0.0mm
16:54 90 °F /  32.2 °C 65.8 °F /  18.8 °C 29.9in /  1011.9hPa SE 8.5mph /  13.7km/h 15mph /  24.1km/h 45.1% 0in /  0.0mm
16:59 89.4 °F /  31.9 °C 65.5 °F /  18.6 °C 29.9in /  1011.9hPa SE 8.7mph /  14km/h 15mph /  24.1km/h 45.3% 0in /  0.0mm
17:04 89.2 °F /  31.8 °C 65.3 °F /  18.5 °C 29.9in /  1012.0hPa SE 9.2mph /  14.8km/h 15mph /  24.1km/h 45.3% 0in /  0.0mm
17:09 89.2 °F /  31.8 °C 65.3 °F /  18.5 °C 29.9in /  1012.0hPa SE 9mph /  14.5km/h 16.1mph /  25.9km/h 45.2% 0in /  0.0mm
17:14 89.1 °F /  31.7 °C 65.5 °F /  18.6 °C 29.9in /  1012.0hPa ESE 8.5mph /  13.7km/h 16mph /  25.7km/h 45.8% 0in /  0.0mm
17:19 88.7 °F /  31.5 °C 65.8 °F /  18.8 °C 29.9in /  1012.0hPa ESE 8.5mph /  13.7km/h 15mph /  24.1km/h 46.8% 0in /  0.0mm
17:24 88.3 °F /  31.3 °C 65.7 °F /  18.7 °C 29.9in /  1011.9hPa ESE 8.5mph /  13.7km/h 15mph /  24.1km/h 47% 0in /  0.0mm
17:29 88.3 °F /  31.3 °C 65.5 °F /  18.6 °C 29.9in /  1011.9hPa ESE 8.1mph /  13.1km/h 14mph /  22.5km/h 46.9% 0in /  0.0mm
17:34 88.2 °F /  31.2 °C 65.5 °F /  18.6 °C 29.9in /  1011.9hPa ESE 7.4mph /  11.9km/h 13mph /  20.9km/h 47% 0in /  0.0mm
17:39 88 °F /  31.1 °C 65.5 °F /  18.6 °C 29.9in /  1011.7hPa ESE 7.7mph /  12.4km/h 13mph /  20.9km/h 47.4% 0in /  0.0mm
17:44 88 °F /  31.1 °C 65.8 °F /  18.8 °C 29.9in /  1011.7hPa ESE 8.5mph /  13.7km/h 13mph /  20.9km/h 48% 0in /  0.0mm
17:49 88 °F /  31.1 °C 65.7 °F /  18.7 °C 29.9in /  1011.7hPa ESE 8.3mph /  13.3km/h 14mph /  22.5km/h 47.9% 0in /  0.0mm
17:54 87.6 °F /  30.9 °C 65.5 °F /  18.6 °C 29.9in /  1011.5hPa ESE 7.6mph /  12.2km/h 15mph /  24.1km/h 48% 0in /  0.0mm
17:59 87.4 °F /  30.8 °C 65.7 °F /  18.7 °C 29.9in /  1011.5hPa ESE 8.3mph /  13.4km/h 15.2mph /  24.5km/h 48.7% 0in /  0.0mm
18:04 87.3 °F /  30.7 °C 65.8 °F /  18.8 °C 29.9in /  1011.5hPa ESE 9.7mph /  15.6km/h 15mph /  24.1km/h 49% 0in /  0.0mm
18:09 87.3 °F /  30.7 °C 65.7 °F /  18.7 °C 29.9in /  1011.5hPa ESE 9.4mph /  15.1km/h 14mph /  22.5km/h 49% 0in /  0.0mm
18:14 87.1 °F /  30.6 °C 65.5 °F /  18.6 °C 29.9in /  1011.5hPa ESE 8.7mph /  14km/h 14mph /  22.5km/h 49% 0in /  0.0mm
18:19 86.9 °F /  30.5 °C 65.5 °F /  18.6 °C 29.9in /  1011.6hPa ESE 8.5mph /  13.7km/h 14mph /  22.5km/h 49% 0in /  0.0mm
18:24 87.1 °F /  30.6 °C 65.5 °F /  18.6 °C 29.9in /  1011.6hPa ESE 8.1mph /  13km/h 13.8mph /  22.2km/h 48.7% 0in /  0.0mm
18:29 87.3 °F /  30.7 °C 65.3 °F /  18.5 °C 29.9in /  1011.6hPa ESE 7.9mph /  12.7km/h 14.7mph /  23.7km/h 48% 0in /  0.0mm
18:34 87.4 °F /  30.8 °C 65.1 °F /  18.4 °C 29.9in /  1011.7hPa ESE 7.4mph /  11.9km/h 15.2mph /  24.5km/h 47.6% 0in /  0.0mm
18:39 87.4 °F /  30.8 °C 64.8 °F /  18.2 °C 29.9in /  1011.7hPa ESE 8.1mph /  13km/h 15mph /  24.1km/h 47% 0in /  0.0mm
18:44 87.4 °F /  30.8 °C 64.8 °F /  18.2 °C 29.9in /  1011.7hPa ESE 9.7mph /  15.6km/h 17mph /  27.4km/h 47.3% 0in /  0.0mm
18:49 87.4 °F /  30.8 °C 64.8 °F /  18.2 °C 29.9in /  1011.7hPa ESE 9.5mph /  15.3km/h 17.5mph /  28.2km/h 47% 0in /  0.0mm
18:54 87.4 °F /  30.8 °C 64.6 °F /  18.1 °C 29.9in /  1011.7hPa ESE 9.2mph /  14.8km/h 17mph /  27.4km/h 47% 0in /  0.0mm
18:59 87.1 °F /  30.6 °C 64.4 °F /  18 °C 29.9in /  1011.7hPa SE 8.8mph /  14.2km/h 14mph /  22.5km/h 47% 0in /  0.0mm
19:04 87.1 °F /  30.6 °C 64.4 °F /  18 °C 29.9in /  1011.7hPa SE 8.1mph /  13km/h 13.8mph /  22.2km/h 47% 0in /  0.0mm
19:09 87.3 °F /  30.7 °C 64.2 °F /  17.9 °C 29.9in /  1011.7hPa SE 8.2mph /  13.2km/h 15mph /  24.1km/h 46.2% 0in /  0.0mm
19:14 87.3 °F /  30.7 °C 64 °F /  17.8 °C 29.9in /  1011.7hPa ESE 8.5mph /  13.7km/h 15mph /  24.1km/h 46% 0in /  0.0mm
19:19 87.3 °F /  30.7 °C 64 °F /  17.8 °C 29.9in /  1011.8hPa ESE 8.1mph /  13.1km/h 13mph /  20.9km/h 46% 0in /  0.0mm
19:24 87.3 °F /  30.7 °C 64 °F /  17.8 °C 29.9in /  1011.8hPa ESE 7.4mph /  11.9km/h 12mph /  19.3km/h 46% 0in /  0.0mm
19:29 87.4 °F /  30.8 °C 64 °F /  17.8 °C 29.9in /  1011.8hPa ESE 6.7mph /  10.8km/h 8.5mph /  13.7km/h 46% 0in /  0.0mm
19:34 87.3 °F /  30.7 °C 64.2 °F /  17.9 °C 29.9in /  1011.9hPa ESE 5.2mph /  8.4km/h 10.4mph /  16.7km/h 46.4% 0in /  0.0mm
19:39 87.1 °F /  30.6 °C 64.2 °F /  17.9 °C 29.9in /  1011.9hPa ESE 5.2mph /  8.4km/h 10mph /  16.1km/h 46.8% 0in /  0.0mm
19:44 86.9 °F /  30.5 °C 64.2 °F /  17.9 °C 29.9in /  1011.9hPa ESE 5.2mph /  8.4km/h 10.7mph /  17.2km/h 47% 0in /  0.0mm
19:49 86.7 °F /  30.4 °C 64.2 °F /  17.9 °C 29.9in /  1012.0hPa SE 5.4mph /  8.7km/h 11mph /  17.7km/h 47% 0in /  0.0mm
19:54 86.7 °F /  30.4 °C 64.8 °F /  18.2 °C 29.9in /  1012.0hPa ESE 5.9mph /  9.5km/h 10.4mph /  16.7km/h 48.2% 0in /  0.0mm
19:59 86.4 °F /  30.2 °C 65.7 °F /  18.7 °C 29.9in /  1012.0hPa ESE 6mph /  9.7km/h 10mph /  16.1km/h 50% 0in /  0.0mm
20:04 86.2 °F /  30.1 °C 66 °F /  18.9 °C 29.9in /  1012.1hPa SE 6.2mph /  10km/h 9.2mph /  14.8km/h 51.4% 0in /  0.0mm
20:09 85.8 °F /  29.9 °C 66.2 °F /  19 °C 29.9in /  1012.1hPa SE 6mph /  9.6km/h 9mph /  14.5km/h 52% 0in /  0.0mm
20:14 85.6 °F /  29.8 °C 66 °F /  18.9 °C 29.9in /  1012.1hPa ESE 5.4mph /  8.7km/h 9mph /  14.5km/h 52.2% 0in /  0.0mm
20:19 85.3 °F /  29.6 °C 66.2 °F /  19 °C 29.9in /  1012.2hPa ESE 5.4mph /  8.7km/h 9.2mph /  14.8km/h 53% 0in /  0.0mm
20:24 84.9 °F /  29.4 °C 66.4 °F /  19.1 °C 29.9in /  1012.2hPa ESE 5.4mph /  8.7km/h 9mph /  14.5km/h 53.9% 0in /  0.0mm
20:29 84.7 °F /  29.3 °C 66.4 °F /  19.1 °C 29.9in /  1012.2hPa ESE 5.2mph /  8.4km/h 9.2mph /  14.8km/h 54% 0in /  0.0mm
20:34 84.7 °F /  29.3 °C 66.2 °F /  19 °C 29.9in /  1012.3hPa ESE 4.7mph /  7.6km/h 9mph /  14.5km/h 54% 0in /  0.0mm
20:39 84.4 °F /  29.1 °C 66.2 °F /  19 °C 29.9in /  1012.3hPa ESE 4.9mph /  7.9km/h 9.2mph /  14.8km/h 54.5% 0in /  0.0mm
20:44 84 °F /  28.9 °C 66.2 °F /  19 °C 29.9in /  1012.3hPa ESE 5.4mph /  8.7km/h 9.2mph /  14.8km/h 55% 0in /  0.0mm
20:49 83.8 °F /  28.8 °C 66 °F /  18.9 °C 29.9in /  1012.3hPa ESE 5.7mph /  9.1km/h 9mph /  14.5km/h 55.3% 0in /  0.0mm
20:54 83.7 °F /  28.7 °C 66.4 °F /  19.1 °C 29.9in /  1012.3hPa ESE 6.2mph /  10km/h 9mph /  14.5km/h 56% 0in /  0.0mm
20:59 83.7 °F /  28.7 °C 66.4 °F /  19.1 °C 29.9in /  1012.3hPa SE 5.5mph /  8.8km/h 6.4mph /  10.3km/h 56% 0in /  0.0mm
21:04 83.7 °F /  28.7 °C 66.2 °F /  19 °C 29.9in /  1012.6hPa ESE 4mph /  6.5km/h 6mph /  9.7km/h 56% 0in /  0.0mm
21:09 83.5 °F /  28.6 °C 66 °F /  18.9 °C 29.9in /  1012.6hPa SE 3.9mph /  6.3km/h 6mph /  9.7km/h 56% 0in /  0.0mm
21:14 83.3 °F /  28.5 °C 66 °F /  18.9 °C 29.9in /  1012.6hPa SE 3.6mph /  5.8km/h 6mph /  9.7km/h 56% 0in /  0.0mm
21:19 83.1 °F /  28.4 °C 66 °F /  18.9 °C 29.9in /  1012.6hPa ESE 3.7mph /  6km/h 6.9mph /  11.1km/h 56.4% 0in /  0.0mm
21:24 82.9 °F /  28.3 °C 66 °F /  18.9 °C 29.9in /  1012.6hPa ESE 4mph /  6.5km/h 7.4mph /  11.9km/h 57% 0in /  0.0mm
21:29 82.8 °F /  28.2 °C 66.2 °F /  19 °C 29.9in /  1012.6hPa ESE 4.3mph /  7km/h 7.4mph /  11.9km/h 57.6% 0in /  0.0mm
21:34 82.6 °F /  28.1 °C 66.2 °F /  19 °C 29.9in /  1012.8hPa ESE 5.2mph /  8.4km/h 7mph /  11.3km/h 58% 0in /  0.0mm
21:39 82.4 °F /  28 °C 66.6 °F /  19.2 °C 29.9in /  1012.8hPa ESE 4.9mph /  7.9km/h 7mph /  11.3km/h 58.9% 0in /  0.0mm
21:44 82.2 °F /  27.9 °C 66.6 °F /  19.2 °C 29.9in /  1012.8hPa ESE 4.3mph /  6.9km/h 8.5mph /  13.7km/h 59.2% 0in /  0.0mm
21:49 82 °F /  27.8 °C 66.7 °F /  19.3 °C 29.9in /  1013.0hPa ESE 4.4mph /  7.1km/h 9mph /  14.5km/h 60% 0in /  0.0mm
21:54 81.9 °F /  27.7 °C 66.6 °F /  19.2 °C 29.9in /  1013.0hPa ESE 4.7mph /  7.6km/h 7mph /  11.3km/h 60.1% 0in /  0.0mm
21:59 81.7 °F /  27.6 °C 66.6 °F /  19.2 °C 29.9in /  1013.0hPa SE 4.6mph /  7.4km/h 8.1mph /  13km/h 60.4% 0in /  0.0mm
22:04 81.7 °F /  27.6 °C 66.4 °F /  19.1 °C 29.9in /  1013.0hPa ESE 4.3mph /  6.9km/h 8mph /  12.9km/h 60% 0in /  0.0mm
22:09 81.7 °F /  27.6 °C 66.4 °F /  19.1 °C 29.9in /  1013.0hPa SE 4.2mph /  6.8km/h 6mph /  9.7km/h 60.1% 0in /  0.0mm
22:14 81.7 °F /  27.6 °C 66.4 °F /  19.1 °C 29.9in /  1013.0hPa SE 4mph /  6.5km/h 7.4mph /  11.9km/h 60.1% 0in /  0.0mm
22:19 81.3 °F /  27.4 °C 66.2 °F /  19 °C 29.9in /  1013.1hPa SE 4mph /  6.5km/h 7mph /  11.3km/h 60% 0in /  0.0mm
22:24 81.3 °F /  27.4 °C 65.8 °F /  18.8 °C 29.9in /  1013.1hPa ESE 4mph /  6.5km/h 7mph /  11.3km/h 59.3% 0in /  0.0mm
22:29 81.1 °F /  27.3 °C 65.5 °F /  18.6 °C 29.9in /  1013.1hPa ESE 3.7mph /  5.9km/h 6mph /  9.7km/h 59% 0in /  0.0mm
22:34 81.1 °F /  27.3 °C 65.1 °F /  18.4 °C 29.9in /  1013.3hPa ESE 2.9mph /  4.7km/h 5mph /  8km/h 58.2% 0in /  0.0mm
22:39 81.1 °F /  27.3 °C 64.6 °F /  18.1 °C 29.9in /  1013.3hPa ESE 2.5mph /  4.1km/h 4.6mph /  7.4km/h 57.2% 0in /  0.0mm
22:44 81.1 °F /  27.3 °C 64.6 °F /  18.1 °C 29.9in /  1013.3hPa ESE 1.8mph /  2.9km/h 5mph /  8km/h 57% 0in /  0.0mm
22:49 81.1 °F /  27.3 °C 64.4 °F /  18 °C 29.9in /  1013.3hPa Este 1.7mph /  2.7km/h 3mph /  4.8km/h 56.9% 0in /  0.0mm
22:54 81.1 °F /  27.3 °C 63.7 °F /  17.6 °C 29.9in /  1013.3hPa ESE 1.4mph /  2.2km/h 3.6mph /  5.8km/h 55.5% 0in /  0.0mm
22:59 81.1 °F /  27.3 °C 63.5 °F /  17.5 °C 29.9in /  1013.3hPa Este 1.6mph /  2.5km/h 4mph /  6.4km/h 55.4% 0in /  0.0mm
23:04 81.1 °F /  27.3 °C 64.6 °F /  18.1 °C 29.9in /  1013.4hPa Este 1.8mph /  2.9km/h 4mph /  6.4km/h 57.4% 0in /  0.0mm
23:09 81 °F /  27.2 °C 64.6 °F /  18.1 °C 29.9in /  1013.4hPa Este 1.2mph /  2km/h 3mph /  4.8km/h 57.4% 0in /  0.0mm
23:14 80.8 °F /  27.1 °C 64.4 °F /  18 °C 29.9in /  1013.4hPa Calm   3.6mph /  5.8km/h 57.6% 0in /  0.0mm
23:19 80.6 °F /  27 °C 63.9 °F /  17.7 °C 29.9in /  1013.4hPa Este 0.6mph /  1km/h 4.6mph /  7.4km/h 56.5% 0in /  0.0mm
23:24 80.6 °F /  27 °C 63.9 °F /  17.7 °C 29.9in /  1013.4hPa Este 2mph /  3.2km/h 5mph /  8km/h 56.6% 0in /  0.0mm
23:29 80.6 °F /  27 °C 64.2 °F /  17.9 °C 29.9in /  1013.4hPa Este 1.8mph /  2.9km/h 4.3mph /  6.9km/h 57.4% 0in /  0.0mm
23:34 80.4 °F /  26.9 °C 64.4 °F /  18 °C 29.9in /  1013.5hPa NNE 1.4mph /  2.2km/h 5mph /  8km/h 58.4% 0in /  0.0mm
23:39 80.2 °F /  26.8 °C 64.8 °F /  18.2 °C 29.9in /  1013.5hPa NNE 1.6mph /  2.5km/h 5mph /  8km/h 59.6% 0in /  0.0mm
23:44 79.9 °F /  26.6 °C 64.8 °F /  18.2 °C 29.9in /  1013.5hPa NE 2mph /  3.2km/h 5mph /  8km/h 60.1% 0in /  0.0mm
23:49 79.7 °F /  26.5 °C 64.9 °F /  18.3 °C 29.9in /  1013.5hPa NE 2mph /  3.2km/h 4mph /  6.4km/h 61% 0in /  0.0mm
23:54 79.5 °F /  26.4 °C 65.3 °F /  18.5 °C 29.9in /  1013.3hPa NE 2mph /  3.2km/h 4.6mph /  7.4km/h 61.9% 0in /  0.0mm
23:59 79.3 °F /  26.3 °C 65.1 °F /  18.4 °C 29.9in /  1013.3hPa NE 1.9mph /  3.1km/h 5mph /  8km/h 62% 0in /  0.0mm
Murcia-Puente Tocinos, España
Compliments of Weather Underground - 3 mb

La estación de MeteoMurcia.com, publica sus datos en los siguientes proyectos:

Weather Underground PWS IMURCIAP2 Meteoclimatic www.awekas.at

W3Counter
Web Analytics